createdAt,value
2018-06-27T00:00:09.385Z,75.85
2018-06-27T00:02:38.594Z,75.57
2018-06-27T00:05:07.792Z,76.69
2018-06-27T00:07:36.957Z,76.89
2018-06-27T00:10:06.132Z,76.65
2018-06-27T00:12:35.297Z,77.55
2018-06-27T00:15:04.469Z,78.14
2018-06-27T00:17:33.634Z,78.08
2018-06-27T00:20:02.803Z,77.95
2018-06-27T00:22:31.967Z,77.87
2018-06-27T00:25:01.145Z,76.98
2018-06-27T00:27:30.312Z,76.29
2018-06-27T00:29:59.483Z,76.52
2018-06-27T00:32:28.641Z,76.63
2018-06-27T00:34:57.810Z,76.27
2018-06-27T00:37:26.959Z,77.53
2018-06-27T00:39:56.138Z,77.49
2018-06-27T00:42:25.318Z,77.42
2018-06-27T00:44:54.486Z,77.39
2018-06-27T00:47:23.656Z,78.01
2018-06-27T00:49:52.835Z,77.87
2018-06-27T00:52:21.985Z,78.36
2018-06-27T00:54:51.158Z,78.70
2018-06-27T00:57:20.317Z,78.80
2018-06-27T00:59:49.483Z,78.82
2018-06-27T01:02:18.646Z,78.61
2018-06-27T01:04:47.958Z,79.03
2018-06-27T01:07:17.142Z,78.94
2018-06-27T01:09:46.336Z,79.06
2018-06-27T01:12:15.536Z,79.28
2018-06-27T01:14:44.733Z,79.27
2018-06-27T01:17:13.921Z,79.68
2018-06-27T01:19:43.123Z,79.88
2018-06-27T01:22:12.324Z,79.75
2018-06-27T01:24:41.497Z,79.33
2018-06-27T01:27:10.704Z,78.76
2018-06-27T01:29:39.907Z,78.36
2018-06-27T01:32:09.141Z,78.00
2018-06-27T01:34:38.340Z,77.66
2018-06-27T01:37:07.539Z,77.80
2018-06-27T01:39:36.725Z,77.49
2018-06-27T01:42:05.923Z,77.13
2018-06-27T01:44:35.118Z,76.63
2018-06-27T01:47:04.320Z,76.53
2018-06-27T01:49:33.511Z,76.89
2018-06-27T01:52:02.717Z,77.31
2018-06-27T01:54:31.910Z,76.63
2018-06-27T01:57:01.111Z,76.89
2018-06-27T01:59:30.286Z,76.43
2018-06-27T02:01:59.492Z,77.28
2018-06-27T02:04:28.685Z,76.12
2018-06-27T02:06:57.855Z,76.93
2018-06-27T02:09:27.038Z,76.92
2018-06-27T02:11:56.218Z,76.97
2018-06-27T02:14:25.383Z,76.29
2018-06-27T02:16:54.642Z,76.87
2018-06-27T02:19:23.799Z,76.96
2018-06-27T02:21:52.974Z,77.33
2018-06-27T02:24:22.136Z,77.04
2018-06-27T02:26:51.317Z,76.96
2018-06-27T02:29:20.480Z,77.02
2018-06-27T02:31:49.640Z,77.21
2018-06-27T02:34:18.815Z,77.09
2018-06-27T02:36:47.989Z,77.32
2018-06-27T02:39:17.153Z,77.14
2018-06-27T02:41:46.328Z,77.42
2018-06-27T02:44:15.489Z,77.56
2018-06-27T02:46:44.639Z,77.76
2018-06-27T02:49:13.799Z,78.18
2018-06-27T02:51:42.962Z,77.85
2018-06-27T02:54:12.135Z,78.55
2018-06-27T02:56:41.312Z,78.11
2018-06-27T02:59:10.478Z,78.18
2018-06-27T03:01:39.640Z,78.13
2018-06-27T03:04:08.869Z,77.72
2018-06-27T03:06:38.078Z,78.16
2018-06-27T03:09:09.513Z,77.77
2018-06-27T03:11:38.768Z,77.64
2018-06-27T03:14:07.962Z,77.96
2018-06-27T03:16:37.152Z,77.76
2018-06-27T03:19:06.349Z,77.63
2018-06-27T03:21:35.531Z,77.59
2018-06-27T03:24:04.722Z,77.00
2018-06-27T03:26:33.927Z,77.27
2018-06-27T03:29:03.113Z,77.25
2018-06-27T03:31:32.305Z,77.78
2018-06-27T03:34:01.497Z,78.25
2018-06-27T03:36:30.689Z,77.95
2018-06-27T03:38:59.938Z,78.82
2018-06-27T03:41:29.127Z,79.02
2018-06-27T03:43:58.316Z,78.44
2018-06-27T03:46:27.528Z,78.29
2018-06-27T03:48:56.739Z,78.54
2018-06-27T03:51:25.938Z,78.35
2018-06-27T03:53:58.583Z,78.34
2018-06-27T03:56:28.332Z,78.62
2018-06-27T03:58:57.587Z,78.68
2018-06-27T04:01:26.705Z,78.53
2018-06-27T04:03:56.290Z,78.44
2018-06-27T04:06:25.449Z,78.34
2018-06-27T04:08:54.609Z,78.38
2018-06-27T04:11:23.765Z,77.49
2018-06-27T04:13:52.944Z,77.08
2018-06-27T04:16:22.116Z,76.83
2018-06-27T04:18:51.292Z,76.66
2018-06-27T04:21:20.460Z,77.07
2018-06-27T04:23:49.613Z,76.47
2018-06-27T04:26:18.797Z,76.51
2018-06-27T04:28:47.956Z,76.74
2018-06-27T04:31:17.127Z,76.84
2018-06-27T04:33:46.284Z,77.32
2018-06-27T04:36:15.555Z,76.36
2018-06-27T04:38:44.641Z,76.69
2018-06-27T04:41:13.827Z,76.32
2018-06-27T04:43:42.998Z,76.21
2018-06-27T04:46:12.151Z,76.57
2018-06-27T04:48:41.316Z,76.92
2018-06-27T04:51:10.493Z,76.38
2018-06-27T04:53:39.653Z,76.12
2018-06-27T04:56:08.823Z,76.56
2018-06-27T04:58:38.008Z,75.85
2018-06-27T05:01:07.189Z,75.67
2018-06-27T05:03:36.380Z,74.84
2018-06-27T05:06:05.787Z,74.09
2018-06-27T05:08:34.947Z,73.64
2018-06-27T05:11:04.120Z,73.63
2018-06-27T05:13:33.279Z,73.55
2018-06-27T05:16:02.568Z,73.25
2018-06-27T05:18:31.634Z,72.93
2018-06-27T05:21:00.804Z,73.50
2018-06-27T05:23:29.964Z,73.16
2018-06-27T05:25:59.140Z,72.81
2018-06-27T05:28:28.292Z,73.35
2018-06-27T05:30:57.447Z,72.65
2018-06-27T05:33:26.604Z,72.52
2018-06-27T05:35:55.804Z,72.70
2018-06-27T05:38:24.953Z,72.00
2018-06-27T05:40:54.954Z,72.60
2018-06-27T05:43:24.069Z,71.59
2018-06-27T05:45:53.259Z,71.30
2018-06-27T05:48:22.434Z,72.29
2018-06-27T05:50:51.623Z,72.06
2018-06-27T05:53:20.790Z,71.84
2018-06-27T05:55:49.984Z,71.62
2018-06-27T05:58:19.187Z,71.48
2018-06-27T06:00:48.327Z,71.03
2018-06-27T06:03:17.525Z,70.83
2018-06-27T06:05:46.715Z,70.48
2018-06-27T06:08:15.978Z,70.99
2018-06-27T06:10:45.118Z,70.17
2018-06-27T06:13:14.419Z,69.84
2018-06-27T06:15:43.670Z,70.10
2018-06-27T06:18:12.986Z,69.28
2018-06-27T06:20:42.181Z,70.30
2018-06-27T06:23:11.396Z,69.38
2018-06-27T06:25:40.591Z,69.27
2018-06-27T06:28:09.806Z,69.35
2018-06-27T06:30:39.002Z,68.46
2018-06-27T06:33:08.283Z,68.07
2018-06-27T06:35:37.486Z,67.50
2018-06-27T06:38:06.775Z,67.47
2018-06-27T06:40:36.039Z,66.82
2018-06-27T06:43:05.224Z,67.72
2018-06-27T06:45:34.420Z,67.67
2018-06-27T06:48:03.630Z,67.69
2018-06-27T06:50:32.829Z,68.09
2018-06-27T06:53:02.067Z,67.55
2018-06-27T06:55:32.078Z,66.38
2018-06-27T06:58:01.284Z,66.37
2018-06-27T07:00:30.509Z,66.71
2018-06-27T07:02:59.762Z,67.14
2018-06-27T07:05:28.987Z,65.76
2018-06-27T07:07:58.187Z,65.28
2018-06-27T07:10:27.398Z,65.68
2018-06-27T07:12:56.589Z,64.54
2018-06-27T07:15:25.798Z,64.48
2018-06-27T07:17:55.073Z,64.18
2018-06-27T07:20:24.265Z,63.82
2018-06-27T07:22:53.478Z,63.94
2018-06-27T07:25:22.693Z,63.56
2018-06-27T07:27:51.888Z,63.91
2018-06-27T07:30:21.093Z,63.23
2018-06-27T07:32:50.324Z,62.65
2018-06-27T07:35:19.544Z,61.39
2018-06-27T07:37:48.759Z,57.14
2018-06-27T07:40:18.151Z,56.16
2018-06-27T07:42:47.354Z,54.26
2018-06-27T07:45:16.576Z,54.80
2018-06-27T07:47:45.797Z,54.39
2018-06-27T07:50:15.005Z,53.76
2018-06-27T07:52:44.204Z,54.17
2018-06-27T07:55:13.445Z,54.20
2018-06-27T07:57:42.598Z,52.04
2018-06-27T08:00:11.798Z,50.70
2018-06-27T08:02:41.000Z,51.31
2018-06-27T08:05:10.204Z,49.47
2018-06-27T08:07:39.390Z,48.89
2018-06-27T08:10:08.593Z,49.00
2018-06-27T08:12:37.798Z,49.22
2018-06-27T08:15:14.886Z,47.76
2018-06-27T08:17:44.541Z,47.84
2018-06-27T08:20:14.180Z,47.08
2018-06-27T08:22:44.017Z,46.77
2018-06-27T08:25:13.827Z,46.15
2018-06-27T08:27:43.459Z,47.42
2018-06-27T08:30:13.134Z,44.22
2018-06-27T08:32:42.853Z,44.17
2018-06-27T08:35:14.155Z,43.64
2018-06-27T08:37:43.771Z,44.85
2018-06-27T08:40:13.354Z,43.39
2018-06-27T08:42:42.990Z,43.32
2018-06-27T08:45:12.545Z,42.12
2018-06-27T08:47:42.128Z,41.90
2018-06-27T08:50:11.832Z,42.16
2018-06-27T08:52:41.455Z,41.08
2018-06-27T08:55:12.311Z,42.67
2018-06-27T08:57:43.067Z,43.63
2018-06-27T09:00:12.766Z,41.42
2018-06-27T09:02:42.476Z,41.74
2018-06-27T09:05:12.293Z,41.89
2018-06-27T09:07:44.476Z,42.78
2018-06-27T09:10:14.105Z,43.04
2018-06-27T09:12:43.820Z,42.73
2018-06-27T09:15:13.669Z,42.57
2018-06-27T09:17:43.228Z,42.91
2018-06-27T09:20:12.916Z,43.00
2018-06-27T09:22:43.711Z,41.31
2018-06-27T09:25:14.422Z,40.06
2018-06-27T09:27:44.091Z,40.93
2018-06-27T09:30:13.834Z,38.52
2018-06-27T09:32:44.798Z,39.49
2018-06-27T09:35:14.453Z,39.94
2018-06-27T09:37:44.026Z,39.86
2018-06-27T09:40:13.564Z,39.88
2018-06-27T09:42:43.198Z,39.45
2018-06-27T09:45:12.843Z,40.34
2018-06-27T09:47:42.357Z,41.35
2018-06-27T09:50:12.680Z,40.67
2018-06-27T09:52:42.280Z,40.78
2018-06-27T09:55:13.177Z,40.06
2018-06-27T09:57:43.412Z,41.16
2018-06-27T10:00:18.213Z,40.80
2018-06-27T10:02:47.713Z,40.22
2018-06-27T10:05:17.339Z,40.99
2018-06-27T10:07:47.843Z,41.18
2018-06-27T10:10:18.421Z,41.37
2018-06-27T10:12:48.140Z,41.40
2018-06-27T10:15:21.440Z,41.27
2018-06-27T10:17:50.976Z,39.24
2018-06-27T10:20:20.669Z,37.71
2018-06-27T10:22:50.323Z,37.42
2018-06-27T10:25:20.011Z,37.66
2018-06-27T10:27:49.583Z,36.94
2018-06-27T10:30:19.461Z,35.50
2018-06-27T10:32:49.331Z,35.81
2018-06-27T10:35:19.073Z,35.77
2018-06-27T10:37:48.744Z,35.46
2018-06-27T10:40:18.374Z,34.26
2018-06-27T10:42:48.008Z,33.43
2018-06-27T10:45:17.672Z,34.86
2018-06-27T10:47:47.407Z,34.39
2018-06-27T10:50:17.270Z,34.13
2018-06-27T10:52:47.071Z,33.29
2018-06-27T10:55:19.607Z,34.56
2018-06-27T10:57:49.568Z,33.35
2018-06-27T11:00:19.333Z,35.69
2018-06-27T11:02:48.860Z,37.04
2018-06-27T11:05:19.478Z,37.45
2018-06-27T11:07:49.129Z,37.21
2018-06-27T11:10:18.845Z,35.68
2018-06-27T11:12:48.444Z,35.56
2018-06-27T11:15:18.165Z,33.75
2018-06-27T11:17:47.647Z,34.08
2018-06-27T11:20:17.363Z,35.51
2018-06-27T11:22:46.941Z,33.00
2018-06-27T11:25:16.632Z,32.45
2018-06-27T11:27:46.328Z,33.24
2018-06-27T11:30:16.734Z,35.63
2018-06-27T11:32:46.472Z,37.89
2018-06-27T11:35:16.113Z,36.06
2018-06-27T11:37:45.895Z,34.24
2018-06-27T11:40:15.537Z,33.15
2018-06-27T11:42:45.296Z,35.34
2018-06-27T11:45:14.953Z,35.54
2018-06-27T11:47:44.554Z,36.63
2018-06-27T11:50:14.375Z,32.46
2018-06-27T11:52:44.092Z,30.19
2018-06-27T11:55:15.053Z,29.70
2018-06-27T11:57:45.206Z,30.06
2018-06-27T12:00:14.891Z,32.87
2018-06-27T12:02:46.882Z,30.95
2018-06-27T12:05:23.118Z,30.14
2018-06-27T12:07:54.908Z,31.23
2018-06-27T12:10:24.761Z,33.91
2018-06-27T12:12:54.495Z,34.25
2018-06-27T12:15:24.140Z,33.76
2018-06-27T12:17:53.787Z,32.05
2018-06-27T12:20:23.456Z,29.87
2018-06-27T12:22:53.098Z,31.89
2018-06-27T12:25:22.699Z,30.34
2018-06-27T12:27:52.415Z,30.79
2018-06-27T12:30:24.184Z,32.96
2018-06-27T12:32:54.056Z,35.60
2018-06-27T12:35:23.705Z,36.56
2018-06-27T12:37:53.378Z,34.90
2018-06-27T12:40:22.923Z,31.18
2018-06-27T12:42:52.438Z,30.44
2018-06-27T12:45:21.855Z,30.00
2018-06-27T12:47:51.355Z,32.72
2018-06-27T12:50:20.915Z,32.49
2018-06-27T12:52:50.418Z,33.52
2018-06-27T12:55:20.129Z,31.11
2018-06-27T12:57:56.288Z,29.73
2018-06-27T13:00:25.923Z,28.05
2018-06-27T13:02:55.431Z,26.71
2018-06-27T13:05:25.038Z,28.83
2018-06-27T13:07:54.596Z,31.58
2018-06-27T13:10:24.111Z,31.21
2018-06-27T13:12:53.686Z,32.53
2018-06-27T13:15:23.362Z,30.56
2018-06-27T13:17:52.793Z,29.78
2018-06-27T13:20:22.354Z,27.32
2018-06-27T13:22:51.978Z,27.63
2018-06-27T13:25:21.592Z,26.14
2018-06-27T13:27:51.074Z,25.79
2018-06-27T13:30:20.517Z,26.20
2018-06-27T13:32:50.171Z,25.77
2018-06-27T13:35:19.719Z,26.62
2018-06-27T13:37:49.347Z,26.63
2018-06-27T13:40:18.943Z,26.03
2018-06-27T13:42:48.503Z,28.89
2018-06-27T13:45:17.960Z,28.96
2018-06-27T13:47:47.358Z,27.12
2018-06-27T13:50:16.739Z,25.96
2018-06-27T13:52:46.312Z,25.90
2018-06-27T13:55:15.882Z,25.79
2018-06-27T13:57:45.543Z,25.83
2018-06-27T14:00:14.932Z,24.93
2018-06-27T14:02:44.497Z,24.66
2018-06-27T14:05:14.014Z,27.62
2018-06-27T14:07:43.639Z,26.90
2018-06-27T14:10:13.202Z,31.26
2018-06-27T14:12:42.745Z,31.09
2018-06-27T14:15:12.290Z,32.29
2018-06-27T14:17:41.822Z,31.64
2018-06-27T14:20:11.348Z,28.03
2018-06-27T14:22:40.958Z,28.98
2018-06-27T14:25:10.346Z,28.08
2018-06-27T14:27:39.674Z,27.80
2018-06-27T14:30:09.060Z,28.10
2018-06-27T14:32:38.394Z,29.48
2018-06-27T14:35:07.854Z,31.52
2018-06-27T14:37:37.279Z,32.96
2018-06-27T14:40:06.616Z,32.30
2018-06-27T14:42:35.924Z,30.14
2018-06-27T14:45:05.319Z,27.94
2018-06-27T14:47:34.627Z,27.34
2018-06-27T14:50:03.945Z,27.85
2018-06-27T14:52:33.258Z,25.79
2018-06-27T14:55:02.622Z,25.76
2018-06-27T14:57:31.952Z,27.22
2018-06-27T15:00:01.274Z,28.20
2018-06-27T15:02:30.606Z,27.85
2018-06-27T15:04:59.892Z,27.45
2018-06-27T15:07:29.408Z,27.99
2018-06-27T15:09:58.743Z,29.35
2018-06-27T15:12:28.091Z,31.32
2018-06-27T15:14:57.445Z,30.59
2018-06-27T15:17:26.754Z,32.00
2018-06-27T15:19:56.349Z,31.25
2018-06-27T15:22:25.843Z,31.37
2018-06-27T15:24:55.106Z,28.14
2018-06-27T15:27:24.391Z,28.01
2018-06-27T15:29:53.723Z,28.57
2018-06-27T15:32:23.016Z,29.89
2018-06-27T15:34:52.339Z,26.39
2018-06-27T15:37:21.683Z,24.98
2018-06-27T15:39:50.982Z,24.89
2018-06-27T15:42:20.215Z,25.88
2018-06-27T15:44:49.425Z,25.50
2018-06-27T15:47:18.684Z,29.66
2018-06-27T15:49:48.009Z,30.53
2018-06-27T15:52:17.272Z,32.18
2018-06-27T15:54:46.692Z,31.19
2018-06-27T15:57:15.976Z,28.65
2018-06-27T15:59:52.424Z,26.47
2018-06-27T16:02:22.249Z,28.43
2018-06-27T16:04:51.497Z,29.38
2018-06-27T16:07:20.913Z,29.63
2018-06-27T16:09:51.216Z,26.44
2018-06-27T16:12:20.477Z,24.99
2018-06-27T16:14:49.722Z,24.98
2018-06-27T16:17:19.181Z,26.71
2018-06-27T16:19:48.211Z,26.63
2018-06-27T16:22:17.456Z,26.18
2018-06-27T16:24:46.692Z,24.60
2018-06-27T16:27:16.009Z,25.24
2018-06-27T16:29:45.291Z,26.14
2018-06-27T16:32:14.563Z,25.53
2018-06-27T16:34:43.798Z,25.22
2018-06-27T16:37:13.099Z,25.55
2018-06-27T16:39:42.304Z,26.29
2018-06-27T16:42:11.564Z,26.31
2018-06-27T16:44:40.987Z,25.54
2018-06-27T16:47:10.265Z,25.68
2018-06-27T16:49:39.481Z,27.32
2018-06-27T16:52:08.833Z,29.98
2018-06-27T16:54:37.959Z,30.75
2018-06-27T16:57:07.247Z,31.96
2018-06-27T16:59:36.530Z,31.77
2018-06-27T17:02:05.786Z,32.85
2018-06-27T17:04:35.038Z,33.55
2018-06-27T17:07:04.334Z,34.16
2018-06-27T17:09:33.501Z,34.74
2018-06-27T17:12:02.732Z,34.46
2018-06-27T17:14:31.929Z,30.43
2018-06-27T17:17:01.143Z,30.51
2018-06-27T17:19:30.359Z,28.98
2018-06-27T17:21:59.881Z,29.30
2018-06-27T17:24:29.104Z,30.67
2018-06-27T17:26:58.303Z,30.75
2018-06-27T17:29:27.509Z,31.60
2018-06-27T17:31:56.721Z,30.85
2018-06-27T17:34:25.960Z,32.02
2018-06-27T17:36:55.160Z,32.55
2018-06-27T17:39:30.625Z,31.53
2018-06-27T17:41:59.869Z,31.56
2018-06-27T17:44:29.094Z,32.04
2018-06-27T17:46:58.325Z,31.05
2018-06-27T17:49:27.536Z,32.54
2018-06-27T17:51:56.728Z,31.90
2018-06-27T17:54:25.943Z,31.18
2018-06-27T17:56:55.181Z,31.70
2018-06-27T17:59:24.397Z,32.16
2018-06-27T18:01:53.601Z,31.38
2018-06-27T18:04:22.821Z,31.99
2018-06-27T18:06:52.046Z,32.93
2018-06-27T18:09:21.237Z,33.07
2018-06-27T18:11:50.472Z,30.70
2018-06-27T18:14:19.668Z,33.67
2018-06-27T18:16:48.910Z,35.56
2018-06-27T18:19:18.131Z,36.71
2018-06-27T18:21:47.340Z,36.12
2018-06-27T18:24:16.556Z,36.29
2018-06-27T18:26:45.849Z,37.29
2018-06-27T18:29:16.152Z,37.69
2018-06-27T18:31:46.624Z,37.66
2018-06-27T18:34:17.379Z,38.25
2018-06-27T18:36:48.270Z,38.29
2018-06-27T18:39:18.055Z,39.00
2018-06-27T18:41:48.667Z,39.16
2018-06-27T18:44:17.953Z,39.79
2018-06-27T18:46:47.274Z,39.57
2018-06-27T18:49:16.728Z,40.57
2018-06-27T18:51:46.055Z,39.99
2018-06-27T18:54:15.372Z,40.73
2018-06-27T18:56:44.778Z,41.79
2018-06-27T18:59:14.193Z,41.37
2018-06-27T19:01:43.717Z,41.30
2018-06-27T19:04:13.294Z,42.08
2018-06-27T19:06:42.944Z,42.05
2018-06-27T19:09:13.217Z,41.91
2018-06-27T19:11:43.060Z,42.78
2018-06-27T19:14:12.589Z,42.86
2018-06-27T19:16:42.135Z,42.73
2018-06-27T19:19:11.603Z,43.16
2018-06-27T19:21:41.121Z,43.23
2018-06-27T19:24:10.582Z,43.81
2018-06-27T19:26:40.049Z,43.34
2018-06-27T19:29:09.394Z,44.26
2018-06-27T19:31:38.722Z,44.67
2018-06-27T19:34:08.024Z,44.91
2018-06-27T19:36:37.321Z,44.73
2018-06-27T19:39:09.995Z,45.30
2018-06-27T19:41:39.622Z,45.48
2018-06-27T19:44:09.702Z,46.27
2018-06-27T19:46:38.942Z,45.87
2018-06-27T19:49:08.184Z,46.68
2018-06-27T19:51:37.498Z,46.61
2018-06-27T19:54:06.665Z,46.85
2018-06-27T19:56:36.003Z,47.23
2018-06-27T19:59:05.336Z,46.77
2018-06-27T20:01:34.652Z,47.75
2018-06-27T20:04:04.005Z,47.65
2018-06-27T20:06:33.290Z,48.21
2018-06-27T20:09:02.612Z,48.74
2018-06-27T20:11:31.893Z,48.94
2018-06-27T20:14:01.196Z,49.09
2018-06-27T20:16:30.438Z,49.31
2018-06-27T20:18:59.683Z,49.91
2018-06-27T20:21:29.027Z,50.08
2018-06-27T20:23:58.220Z,50.25
2018-06-27T20:26:27.505Z,50.48
2018-06-27T20:28:56.813Z,51.16
2018-06-27T20:31:26.125Z,51.63
2018-06-27T20:33:55.453Z,52.59
2018-06-27T20:36:24.743Z,53.54
2018-06-27T20:38:53.947Z,52.84
2018-06-27T20:41:23.140Z,52.80
2018-06-27T20:43:52.344Z,53.29
2018-06-27T20:46:21.534Z,53.70
2018-06-27T20:48:50.729Z,53.26
2018-06-27T20:51:19.892Z,53.31
2018-06-27T20:53:49.104Z,54.29
2018-06-27T20:56:18.295Z,54.88
2018-06-27T20:58:47.500Z,55.07
2018-06-27T21:01:16.762Z,54.92
2018-06-27T21:03:46.190Z,55.56
2018-06-27T21:06:15.432Z,55.11
2018-06-27T21:08:44.693Z,55.19
2018-06-27T21:11:13.941Z,54.29
2018-06-27T21:13:43.119Z,54.10
2018-06-27T21:16:12.343Z,54.63
2018-06-27T21:18:41.574Z,54.56
2018-06-27T21:21:10.817Z,54.66
2018-06-27T21:23:40.009Z,54.23
2018-06-27T21:26:09.215Z,53.81
2018-06-27T21:28:38.424Z,54.01
2018-06-27T21:31:07.657Z,54.49
2018-06-27T21:33:36.846Z,54.20
2018-06-27T21:36:06.180Z,53.98
2018-06-27T21:38:35.377Z,53.93
2018-06-27T21:41:04.553Z,54.00
2018-06-27T21:43:33.734Z,54.15
2018-06-27T21:46:02.884Z,54.80
2018-06-27T21:48:32.029Z,55.22
2018-06-27T21:51:01.208Z,55.20
2018-06-27T21:53:30.363Z,55.61
2018-06-27T21:55:59.527Z,55.63
2018-06-27T21:58:28.700Z,56.26
2018-06-27T22:00:57.865Z,56.52
2018-06-27T22:03:27.021Z,56.93
2018-06-27T22:05:56.183Z,57.05
2018-06-27T22:08:25.348Z,57.31
2018-06-27T22:10:54.571Z,57.85
2018-06-27T22:13:23.853Z,58.54
2018-06-27T22:15:53.053Z,59.21
2018-06-27T22:18:22.252Z,59.31
2018-06-27T22:20:51.430Z,59.13
2018-06-27T22:23:20.932Z,59.43
2018-06-27T22:25:50.116Z,59.44
2018-06-27T22:28:19.384Z,59.78
2018-06-27T22:30:48.586Z,59.81
2018-06-27T22:33:17.788Z,60.50
2018-06-27T22:35:46.996Z,60.91
2018-06-27T22:38:16.224Z,61.56
2018-06-27T22:40:45.406Z,62.30
2018-06-27T22:43:14.608Z,62.65
2018-06-27T22:45:43.804Z,62.40
2018-06-27T22:48:13.001Z,62.60
2018-06-27T22:50:42.208Z,62.53
2018-06-27T22:53:11.412Z,62.24
2018-06-27T22:55:40.605Z,62.27
2018-06-27T22:58:09.793Z,62.69
2018-06-27T23:00:38.990Z,62.76
2018-06-27T23:03:08.194Z,63.14
2018-06-27T23:05:37.405Z,63.82
2018-06-27T23:08:06.750Z,62.50
2018-06-27T23:10:35.913Z,60.72
2018-06-27T23:13:05.089Z,60.15
2018-06-27T23:15:34.248Z,59.75
2018-06-27T23:18:03.520Z,59.94
2018-06-27T23:32:20.489Z,58.35
2018-06-27T23:34:49.645Z,58.08
2018-06-27T23:37:18.792Z,58.95
2018-06-27T23:39:47.952Z,58.47
2018-06-27T23:42:17.113Z,58.36
2018-06-27T23:44:46.460Z,58.87
2018-06-27T23:47:15.686Z,59.11
2018-06-27T23:49:45.212Z,59.09
2018-06-27T23:52:14.369Z,59.04
2018-06-27T23:54:43.529Z,59.33
2018-06-27T23:57:12.835Z,59.16
2018-06-27T23:59:41.985Z,59.43
